Time;durP1;ratioP1;P1;durP2;ratioP2;P2;SDS_P1;SDS_P2;PMS_P1;PMS_P2;Temp;Humidity;BMP_temperature;BMP_pressure;BME280_temperature;BME280_humidity;BME280_pressure;Samples;Min_cycle;Max_cycle;Signal;HPM_P1;HPM_P2
2022/03/24 00:00:42;;;;;;;8.27;4.18;;;17.20;56.60;;;;;;10354218;28;20076;-58
2022/03/24 00:05:43;;;;;;;7.13;4.00;;;17.20;56.60;;;;;;10371303;28;20121;-57
2022/03/24 00:10:44;;;;;;;7.75;4.22;;;17.20;56.60;;;;;;10374928;28;20034;-58
2022/03/24 00:15:44;;;;;;;6.47;5.00;;;17.20;56.30;;;;;;10379641;28;20029;-58
2022/03/24 00:20:45;;;;;;;6.45;5.00;;;17.20;56.30;;;;;;10379328;28;20493;-59
2022/03/24 03:04:13;;;;;;;5.78;4.25;;;17.00;54.90;;;;;;10355633;28;20136;-58
2022/03/24 03:09:16;;;;;;;6.18;4.95;;;17.00;55.10;;;;;;10384170;28;20131;-58
2022/03/24 03:14:18;;;;;;;6.47;5.30;;;17.10;54.60;;;;;;10406595;28;20030;-58
2022/03/24 03:19:19;;;;;;;6.82;4.38;;;17.10;54.60;;;;;;10412530;28;20022;-58
2022/03/24 03:24:23;;;;;;;11.52;4.65;;;17.10;54.60;;;;;;10369444;28;20478;-57
2022/03/24 03:29:24;;;;;;;7.30;4.60;;;17.00;55.10;;;;;;10382133;28;20034;-58
2022/03/24 03:34:25;;;;;;;6.10;4.45;;;17.00;55.30;;;;;;10395262;28;20398;-58
2022/03/24 03:39:27;;;;;;;5.53;4.10;;;17.00;55.30;;;;;;10375703;28;20549;-58
2022/03/24 03:44:28;;;;;;;7.82;5.07;;;17.00;55.40;;;;;;10381369;28;20080;-58
2022/03/24 03:49:29;;;;;;;6.90;4.93;;;16.90;55.30;;;;;;10385684;28;20045;-58
2022/03/24 03:54:29;;;;;;;8.05;5.35;;;16.90;54.50;;;;;;10400428;28;20071;-57
2022/03/24 03:59:30;;;;;;;6.20;4.80;;;17.00;54.40;;;;;;10425318;28;20072;-58
2022/03/24 04:04:31;;;;;;;6.75;4.22;;;17.00;54.40;;;;;;10404707;28;20095;-58
2022/03/24 04:09:32;;;;;;;5.50;4.65;;;17.00;54.10;;;;;;10399910;28;20721;-57
2022/03/24 04:14:32;;;;;;;9.00;6.05;;;17.10;54.00;;;;;;10393725;28;20073;-58
2022/03/24 04:19:33;;;;;;;8.13;4.30;;;17.00;53.90;;;;;;10397013;28;20132;-58
2022/03/24 04:24:34;;;;;;;4.78;4.22;;;17.10;53.80;;;;;;10424945;28;20108;-58
2022/03/24 04:29:34;;;;;;;6.53;4.93;;;17.10;53.70;;;;;;10424874;28;20133;-58
2022/03/24 04:34:35;;;;;;;5.68;4.35;;;17.00;53.80;;;;;;10371527;28;20109;-58
2022/03/24 04:39:36;;;;;;;6.30;4.82;;;17.00;53.90;;;;;;10410080;28;20116;-58
2022/03/24 04:44:36;;;;;;;7.75;5.10;;;17.00;54.10;;;;;;10424480;28;20112;-58
2022/03/24 04:49:37;;;;;;;5.95;4.82;;;17.00;53.70;;;;;;10380703;28;20067;-58
2022/03/24 04:54:38;;;;;;;6.47;5.22;;;17.00;53.60;;;;;;10394166;28;20022;-58
2022/03/24 04:59:39;;;;;;;6.38;4.85;;;17.00;53.70;;;;;;10390800;28;20137;-58
2022/03/24 05:04:40;;;;;;;7.47;4.45;;;17.00;53.60;;;;;;10393722;28;20386;-58
2022/03/24 05:09:40;;;;;;;6.82;4.53;;;17.00;53.60;;;;;;10392796;28;20123;-58
2022/03/24 05:14:42;;;;;;;5.78;4.07;;;17.00;53.50;;;;;;10393726;28;20437;-58
2022/03/24 05:19:48;;;;;;;6.80;4.90;;;17.00;53.40;;;;;;10391856;28;20022;-58
2022/03/24 05:24:49;;;;;;;6.18;4.50;;;17.00;53.30;;;;;;10388527;28;20033;-58
2022/03/24 05:29:49;;;;;;;5.80;4.38;;;17.00;53.30;;;;;;10368170;28;20205;-58
2022/03/24 05:34:50;;;;;;;14.13;5.55;;;17.00;54.10;;;;;;10376070;28;20068;-58
2022/03/24 05:39:51;;;;;;;6.40;4.80;;;16.90;54.00;;;;;;10387411;28;20112;-58
2022/03/24 05:44:51;;;;;;;7.57;4.70;;;17.00;53.40;;;;;;10391022;28;20034;-57
2022/03/24 05:49:52;;;;;;;13.45;5.32;;;17.10;54.20;;;;;;10390980;28;20577;-59
2022/03/24 05:54:53;;;;;;;18.90;6.65;;;17.10;55.00;;;;;;10392833;28;20047;-58
2022/03/24 05:59:53;;;;;;;22.30;6.57;;;17.10;54.70;;;;;;10412583;28;20120;-58
2022/03/24 06:04:55;;;;;;;16.77;6.43;;;17.40;55.30;;;;;;10414595;28;20124;-57
2022/03/24 06:09:57;;;;;;;14.73;6.90;;;17.40;55.60;;;;;;10382756;28;20092;-58
2022/03/24 06:14:58;;;;;;;12.82;5.68;;;17.40;55.80;;;;;;10373116;28;20506;-56
2022/03/24 06:20:01;;;;;;;9.50;5.25;;;17.40;56.00;;;;;;10373958;28;20132;-57
2022/03/24 06:25:02;;;;;;;16.83;6.53;;;17.30;56.50;;;;;;10395951;28;20052;-57
2022/03/24 06:30:05;;;;;;;33.33;7.45;;;17.10;56.30;;;;;;10414476;28;20030;-58
2022/03/24 06:35:08;;;;;;;38.25;9.10;;;17.00;56.50;;;;;;10373322;28;20069;-60
2022/03/24 06:40:14;;;;;;;28.02;9.05;;;16.90;56.70;;;;;;10378198;28;20585;-60
2022/03/24 06:45:15;;;;;;;33.67;7.35;;;16.90;57.10;;;;;;10381327;28;20498;-57
2022/03/24 06:50:17;;;;;;;20.90;7.60;;;16.90;56.90;;;;;;10373647;28;20022;-58
2022/03/24 06:55:18;;;;;;;15.60;6.00;;;16.80;56.90;;;;;;10372637;28;20107;-58
2022/03/24 07:00:19;;;;;;;19.38;6.55;;;16.90;56.20;;;;;;10386357;28;20025;-57
2022/03/24 07:05:20;;;;;;;21.00;6.95;;;16.90;55.90;;;;;;10377564;28;20673;-58
2022/03/24 07:10:21;;;;;;;16.40;7.10;;;16.90;56.00;;;;;;10383570;28;20053;-59
2022/03/24 07:15:23;;;;;;;18.30;7.25;;;16.80;56.70;;;;;;10406770;28;20044;-57
2022/03/24 07:20:23;;;;;;;21.98;7.40;;;16.90;56.30;;;;;;10411312;28;20034;-56
2022/03/24 07:25:25;;;;;;;18.48;6.43;;;16.90;55.70;;;;;;10379562;28;20029;-58
2022/03/24 07:30:27;;;;;;;18.40;7.47;;;16.80;56.00;;;;;;10355788;28;20036;-57
2022/03/24 07:35:34;;;;;;;18.30;9.55;;;16.80;55.80;;;;;;10392123;28;20432;-57
2022/03/24 07:40:34;;;;;;;16.23;6.45;;;16.70;56.00;;;;;;10411869;28;20033;-57
2022/03/24 07:45:38;;;;;;;13.32;5.82;;;16.70;56.10;;;;;;10411923;28;20025;-57
2022/03/24 07:50:42;;;;;;;10.05;5.72;;;16.70;56.10;;;;;;10412140;28;20056;-57
2022/03/24 07:55:46;;;;;;;14.63;6.40;;;16.70;56.20;;;;;;10380654;28;20050;-57
2022/03/24 08:00:47;;;;;;;14.40;6.43;;;16.70;56.10;;;;;;10388893;28;20493;-58
2022/03/24 08:05:49;;;;;;;10.50;5.95;;;16.70;56.20;;;;;;10411419;28;20037;-57
2022/03/24 08:10:51;;;;;;;15.65;6.43;;;16.70;55.90;;;;;;10412125;28;20489;-56
2022/03/24 08:15:52;;;;;;;9.85;5.80;;;16.70;56.00;;;;;;10411609;28;20068;-59
2022/03/24 08:20:52;;;;;;;9.68;5.43;;;16.70;56.00;;;;;;10380662;28;20053;-60
2022/03/24 08:25:53;;;;;;;13.00;6.72;;;16.80;56.00;;;;;;10412369;28;20064;-58
2022/03/24 08:30:54;;;;;;;9.77;5.10;;;16.80;56.00;;;;;;10419349;28;20630;-58
2022/03/24 08:35:55;;;;;;;10.73;5.20;;;16.80;56.10;;;;;;10388954;28;20084;-58
2022/03/24 08:40:55;;;;;;;9.73;5.63;;;16.80;56.20;;;;;;10378472;28;20488;-58
2022/03/24 08:45:56;;;;;;;11.35;5.85;;;16.80;56.20;;;;;;10377852;28;20553;-58
2022/03/24 08:50:57;;;;;;;10.13;6.60;;;16.80;56.20;;;;;;10373416;28;20113;-59
2022/03/24 08:55:57;;;;;;;9.40;5.45;;;16.80;56.20;;;;;;10380464;28;20445;-59
2022/03/24 09:00:58;;;;;;;8.55;5.43;;;16.80;56.20;;;;;;10396166;28;20021;-58
2022/03/24 09:05:59;;;;;;;8.93;5.50;;;16.90;56.30;;;;;;10417695;28;20092;-58
2022/03/24 09:10:59;;;;;;;6.50;4.63;;;16.80;56.40;;;;;;10417592;28;20116;-58
2022/03/24 09:16:00;;;;;;;7.85;4.68;;;16.80;56.40;;;;;;10417428;28;20481;-58
2022/03/24 09:21:01;;;;;;;8.38;5.07;;;16.90;56.50;;;;;;10417301;28;20061;-59
2022/03/24 09:26:02;;;;;;;8.88;4.45;;;16.90;56.40;;;;;;10417237;28;20112;-58
2022/03/24 09:31:02;;;;;;;7.22;4.53;;;16.90;56.40;;;;;;10373201;28;20029;-58
2022/03/24 09:36:04;;;;;;;8.57;4.25;;;16.90;56.40;;;;;;10384830;28;20115;-58
2022/03/24 09:41:11;;;;;;;6.15;4.35;;;16.90;56.30;;;;;;10375334;28;20033;-58
2022/03/24 09:46:13;;;;;;;7.55;5.15;;;16.90;56.30;;;;;;10371788;28;20513;-58
2022/03/24 09:51:15;;;;;;;7.30;4.05;;;17.00;56.40;;;;;;10371190;28;20084;-58
2022/03/24 09:56:17;;;;;;;7.30;5.05;;;17.00;56.20;;;;;;10380258;28;20041;-58
2022/03/24 10:01:18;;;;;;;8.38;4.80;;;17.10;56.20;;;;;;10380699;28;20053;-58
2022/03/24 10:06:18;;;;;;;8.60;4.35;;;17.10;56.10;;;;;;10374409;28;20054;-58
2022/03/24 10:11:23;;;;;;;6.57;4.10;;;17.10;56.10;;;;;;10374502;28;20464;-59
2022/03/24 10:16:33;;;;;;;8.00;4.50;;;17.20;56.00;;;;;;10383485;28;20505;-58
2022/03/24 10:21:37;;;;;;;5.68;4.05;;;17.20;56.00;;;;;;10371533;28;20539;-59
2022/03/24 10:26:47;;;;;;;6.15;3.80;;;17.20;56.00;;;;;;10414469;28;20188;-58
2022/03/24 10:31:57;;;;;;;6.82;4.82;;;17.20;55.90;;;;;;10414694;28;20385;-58
2022/03/24 10:37:09;;;;;;;7.55;3.90;;;17.30;56.00;;;;;;10375335;28;20497;-59
2022/03/24 10:42:17;;;;;;;5.72;3.63;;;17.30;56.00;;;;;;10370064;28;20112;-58
2022/03/24 10:47:44;;;;;;;6.20;3.60;;;17.30;55.90;;;;;;10373330;28;20064;-58
2022/03/24 10:52:45;;;;;;;6.50;3.45;;;17.30;55.90;;;;;;10395660;28;20091;-59
2022/03/24 10:57:46;;;;;;;5.60;3.72;;;17.30;55.90;;;;;;10372793;28;20440;-59
2022/03/24 11:02:47;;;;;;;7.30;4.45;;;17.30;56.00;;;;;;10389242;28;20549;-58
2022/03/24 11:07:55;;;;;;;7.78;3.88;;;17.40;56.00;;;;;;10413188;28;20073;-58
2022/03/24 11:13:01;;;;;;;4.57;3.00;;;17.40;55.90;;;;;;10382369;28;20136;-58
2022/03/24 11:18:03;;;;;;;5.00;3.42;;;17.40;55.90;;;;;;10413249;28;20120;-58
2022/03/24 11:23:31;;;;;;;5.32;3.83;;;17.50;55.90;;;;;;10369000;28;20025;-58
2022/03/24 11:28:36;;;;;;;4.90;3.15;;;17.40;56.00;;;;;;10412782;28;20030;-58
2022/03/24 11:33:42;;;;;;;6.50;3.78;;;17.50;56.10;;;;;;10401327;28;20036;-59
2022/03/24 11:38:46;;;;;;;5.63;3.08;;;17.40;56.10;;;;;;10371845;28;20034;-58
2022/03/24 11:43:52;;;;;;;4.43;3.15;;;17.50;56.00;;;;;;10374269;28;20105;-59
2022/03/24 11:49:25;;;;;;;4.40;3.53;;;17.50;56.10;;;;;;10412181;28;20029;-58
2022/03/24 11:54:36;;;;;;;5.57;3.40;;;17.50;56.10;;;;;;10390820;28;20557;-58
2022/03/24 11:59:36;;;;;;;5.63;3.25;;;17.50;56.20;;;;;;10379641;28;20076;-58
2022/03/24 12:04:56;;;;;;;4.93;3.33;;;17.50;56.10;;;;;;10420747;28;20094;-58
2022/03/24 12:09:58;;;;;;;5.53;3.30;;;17.60;56.00;;;;;;10420110;28;20060;-58
2022/03/24 12:15:17;;;;;;;5.25;3.17;;;17.60;56.10;;;;;;10419813;28;20030;-58
2022/03/24 12:20:22;;;;;;;4.00;3.20;;;17.60;56.10;;;;;;10419734;28;20561;-59
2022/03/24 12:25:26;;;;;;;4.30;2.90;;;17.60;56.00;;;;;;10419464;28;20025;-58
2022/03/24 12:30:43;;;;;;;5.53;2.88;;;17.70;56.00;;;;;;10419333;28;20068;-58
2022/03/24 12:35:58;;;;;;;4.70;3.00;;;17.70;56.10;;;;;;10390551;28;20022;-58
2022/03/24 12:41:08;;;;;;;4.10;2.85;;;17.70;56.10;;;;;;10378054;28;20389;-58
2022/03/24 12:46:28;;;;;;;3.97;2.60;;;17.80;55.90;;;;;;10377759;28;20026;-58
2022/03/24 12:51:30;;;;;;;4.78;3.22;;;17.80;55.80;;;;;;10377595;28;20397;-58
2022/03/24 12:56:34;;;;;;;5.07;2.70;;;17.80;55.80;;;;;;10381646;28;20037;-57
2022/03/24 13:01:35;;;;;;;4.35;3.10;;;17.90;55.80;;;;;;10400541;28;20371;-57
2022/03/24 13:06:37;;;;;;;3.53;2.63;;;17.90;55.80;;;;;;10417543;28;20590;-58
2022/03/24 13:12:03;;;;;;;5.03;2.65;;;18.00;55.60;;;;;;10382727;28;20287;-58
2022/03/24 13:17:10;;;;;;;6.97;3.83;;;18.00;55.90;;;;;;10417506;28;20112;-57
2022/03/24 13:22:20;;;;;;;4.93;2.72;;;18.00;56.70;;;;;;10417259;28;20025;-58
2022/03/24 13:27:21;;;;;;;4.38;2.67;;;18.00;57.10;;;;;;10417552;28;20035;-58
2022/03/24 13:32:26;;;;;;;3.63;2.20;;;17.90;57.40;;;;;;10415853;28;20118;-58
2022/03/24 13:37:40;;;;;;;4.18;2.58;;;18.00;57.80;;;;;;10375457;28;20034;-58
2022/03/24 13:42:43;;;;;;;3.53;2.53;;;18.00;58.00;;;;;;10373567;28;20151;-58
2022/03/24 13:48:10;;;;;;;3.53;2.30;;;18.00;58.10;;;;;;10416396;28;20033;-58
2022/03/24 13:53:24;;;;;;;2.85;2.10;;;18.00;58.20;;;;;;10376056;28;20036;-57
2022/03/24 13:58:25;;;;;;;4.95;2.75;;;18.00;58.30;;;;;;10374685;28;20038;-57
2022/03/24 14:03:29;;;;;;;3.95;2.72;;;18.00;58.30;;;;;;10414560;28;20030;-58
2022/03/24 14:08:39;;;;;;;5.85;3.08;;;18.00;58.40;;;;;;10415331;28;20052;-57
2022/03/24 14:13:50;;;;;;;3.10;2.35;;;18.00;58.30;;;;;;10415216;28;20033;-58
2022/03/24 14:19:14;;;;;;;4.25;2.20;;;18.00;58.30;;;;;;10414991;28;20040;-58
2022/03/24 14:24:27;;;;;;;3.17;2.00;;;17.90;58.30;;;;;;10383924;28;20030;-58
2022/03/24 14:29:28;;;;;;;3.35;2.10;;;17.90;58.40;;;;;;10414593;28;20086;-57
2022/03/24 14:34:29;;;;;;;3.35;2.33;;;17.80;58.50;;;;;;10396014;28;20052;-59
2022/03/24 14:39:29;;;;;;;4.03;2.28;;;17.80;58.50;;;;;;10369192;28;20121;-58
2022/03/24 14:44:30;;;;;;;3.92;2.58;;;17.70;58.50;;;;;;10373485;28;20060;-59
2022/03/24 14:49:31;;;;;;;3.10;2.25;;;17.70;58.60;;;;;;10372882;28;20057;-58
2022/03/24 14:54:32;;;;;;;3.42;2.28;;;17.70;58.50;;;;;;10375192;28;20465;-58
2022/03/24 14:59:34;;;;;;;4.57;2.45;;;17.70;58.50;;;;;;10372756;28;20038;-58
2022/03/24 15:04:34;;;;;;;5.13;2.55;;;17.70;58.40;;;;;;10372602;28;20446;-58
2022/03/24 15:09:35;;;;;;;4.03;2.60;;;17.70;58.40;;;;;;10372437;28;20060;-58
2022/03/24 15:19:55;;;;;;;3.92;2.75;;;17.60;58.40;;;;;;10400658;28;20037;-58
2022/03/24 15:24:56;;;;;;;4.80;2.47;;;17.60;58.40;;;;;;10381984;28;20065;-58
2022/03/24 15:29:57;;;;;;;3.85;2.40;;;17.50;58.40;;;;;;10412471;28;20057;-58
2022/03/24 15:34:58;;;;;;;3.40;2.80;;;17.50;58.40;;;;;;10389588;28;20038;-58
2022/03/24 15:39:58;;;;;;;3.70;2.42;;;17.50;58.50;;;;;;10371615;28;20117;-58
2022/03/24 15:44:59;;;;;;;4.15;2.78;;;17.50;58.50;;;;;;10371432;28;20061;-58
2022/03/24 15:50:00;;;;;;;5.13;3.42;;;17.50;58.50;;;;;;10371445;28;20089;-58
2022/03/24 15:55:00;;;;;;;5.40;2.63;;;17.50;58.50;;;;;;10372950;28;20037;-58
2022/03/24 16:00:01;;;;;;;4.40;2.72;;;17.40;58.50;;;;;;10382512;28;20068;-57
2022/03/24 16:05:02;;;;;;;4.18;2.50;;;;;;;;;;10411783;28;20021;-57
2022/03/24 16:10:07;;;;;;;3.78;2.83;;;17.40;57.90;;;;;;10411772;28;20159;-57
2022/03/24 16:15:13;;;;;;;5.25;2.42;;;17.40;58.40;;;;;;10411700;28;20039;-58
2022/03/24 16:20:14;;;;;;;3.75;2.60;;;17.50;58.40;;;;;;10411945;28;20037;-58
2022/03/24 16:25:14;;;;;;;5.93;2.92;;;17.50;58.40;;;;;;10411537;28;20492;-59
2022/03/24 16:30:15;;;;;;;3.70;2.65;;;17.50;58.40;;;;;;10384724;28;20025;-60
2022/03/24 16:35:16;;;;;;;4.25;2.60;;;17.50;58.40;;;;;;10377900;28;20069;-59
2022/03/24 16:40:17;;;;;;;3.95;2.70;;;17.40;58.10;;;;;;10370510;28;20604;-61
2022/03/24 16:45:19;;;;;;;3.88;2.97;;;17.50;58.00;;;;;;10377551;28;20124;-60
2022/03/24 16:50:24;;;;;;;4.18;3.42;;;17.50;57.90;;;;;;10416764;28;20040;-60
2022/03/24 16:55:25;;;;;;;5.72;3.33;;;17.50;57.60;;;;;;10389298;28;20038;-60
2022/03/24 17:00:26;;;;;;;6.85;3.40;;;17.50;57.50;;;;;;10404031;28;20045;-61
2022/03/24 17:05:27;;;;;;;5.78;3.40;;;17.50;57.40;;;;;;10418041;28;20430;-60
2022/03/24 17:10:28;;;;;;;7.45;4.43;;;17.40;57.30;;;;;;10408920;28;20500;-59
2022/03/24 17:15:30;;;;;;;8.32;4.70;;;17.40;57.00;;;;;;10391677;28;20033;-62
2022/03/24 17:20:31;;;;;;;6.55;4.65;;;17.40;56.80;;;;;;10415874;28;20030;-61
2022/03/24 17:25:31;;;;;;;14.55;6.88;;;17.40;56.90;;;;;;10417316;28;20088;-60
2022/03/24 17:30:32;;;;;;;24.15;8.00;;;17.40;59.30;;;;;;10383600;28;20085;-57
2022/03/24 17:35:33;;;;;;;19.42;7.30;;;17.70;60.80;;;;;;10376138;28;20038;-58
2022/03/24 17:40:34;;;;;;;23.50;8.68;;;17.80;60.70;;;;;;10371675;28;20084;-59
2022/03/24 17:45:35;;;;;;;26.65;8.63;;;17.80;60.60;;;;;;10393814;28;20091;-60
2022/03/24 17:50:36;;;;;;;27.48;9.27;;;17.60;59.70;;;;;;10399137;28;20120;-59
2022/03/24 17:55:37;;;;;;;29.48;8.90;;;17.60;60.30;;;;;;10389029;28;20045;-58
2022/03/24 18:00:38;;;;;;;27.88;9.80;;;17.60;60.70;;;;;;10389920;28;20083;-59
2022/03/24 18:05:38;;;;;;;35.90;10.57;;;17.60;60.40;;;;;;10415725;28;20072;-59
2022/03/24 18:10:39;;;;;;;33.55;8.85;;;17.60;60.60;;;;;;10415511;28;20443;-59
2022/03/24 18:15:41;;;;;;;24.50;8.57;;;17.60;60.40;;;;;;10404243;28;20038;-59
2022/03/24 18:20:41;;;;;;;27.33;8.27;;;17.50;60.30;;;;;;10384992;28;20042;-60
2022/03/24 18:25:44;;;;;;;22.33;8.73;;;17.50;60.40;;;;;;10374809;28;20556;-59
2022/03/24 18:30:46;;;;;;;19.73;8.05;;;17.40;60.40;;;;;;10374434;28;20022;-59
2022/03/24 18:35:52;;;;;;;16.48;6.47;;;17.40;60.50;;;;;;10374406;28;20040;-60
2022/03/24 18:40:53;;;;;;;27.00;9.65;;;17.40;60.60;;;;;;10372161;28;20038;-60
2022/03/24 18:45:54;;;;;;;19.67;7.78;;;17.40;60.00;;;;;;10366715;28;20506;-61
2022/03/24 18:50:55;;;;;;;14.90;7.85;;;17.40;59.90;;;;;;10383411;28;20485;-59
2022/03/24 18:55:56;;;;;;;19.17;8.82;;;17.30;59.80;;;;;;10387738;28;20064;-60
2022/03/24 19:00:56;;;;;;;14.18;6.82;;;17.30;59.80;;;;;;10380492;28;20026;-58
2022/03/24 19:05:57;;;;;;;17.17;8.30;;;17.30;59.70;;;;;;10382760;28;20132;-59
2022/03/24 19:10:58;;;;;;;15.10;7.22;;;17.30;59.60;;;;;;10411497;28;20105;-59
2022/03/24 19:16:04;;;;;;;17.15;9.25;;;17.30;59.60;;;;;;10410967;28;20021;-60
2022/03/24 19:21:04;;;;;;;12.13;8.35;;;17.30;59.60;;;;;;10411807;28;20382;-60
2022/03/24 19:26:05;;;;;;;14.60;8.50;;;17.30;59.50;;;;;;10398233;28;20049;-59
2022/03/24 19:31:06;;;;;;;12.90;7.30;;;17.30;59.40;;;;;;10371077;28;20101;-60
2022/03/24 19:36:07;;;;;;;16.83;8.25;;;17.30;59.40;;;;;;10371186;28;20038;-60
2022/03/24 19:41:07;;;;;;;13.10;7.70;;;17.30;59.40;;;;;;10371311;28;20026;-59
2022/03/24 19:46:08;;;;;;;16.13;8.57;;;17.30;59.30;;;;;;10387906;28;20172;-60
2022/03/24 19:51:09;;;;;;;12.98;7.22;;;17.30;59.20;;;;;;10386455;28;20550;-60
2022/03/24 19:56:12;;;;;;;9.68;7.05;;;17.30;59.40;;;;;;10369962;28;20026;-59
2022/03/24 20:01:12;;;;;;;14.45;8.10;;;17.30;59.20;;;;;;10378740;28;20034;-59
2022/03/24 20:06:13;;;;;;;18.50;8.35;;;17.30;59.10;;;;;;10385535;28;20269;-60
2022/03/24 20:11:14;;;;;;;11.63;7.32;;;17.20;59.20;;;;;;10398739;28;20069;-59
2022/03/24 20:16:14;;;;;;;18.27;8.45;;;17.20;59.30;;;;;;10362521;28;20432;-60
2022/03/24 20:21:15;;;;;;;16.23;8.80;;;17.20;59.30;;;;;;10388363;28;20033;-59
2022/03/24 20:26:20;;;;;;;14.52;8.35;;;17.20;59.20;;;;;;10394285;28;20049;-59
2022/03/24 20:31:21;;;;;;;10.93;7.40;;;17.20;59.20;;;;;;10384431;28;20040;-59
2022/03/24 20:36:21;;;;;;;11.70;7.90;;;17.20;59.10;;;;;;10398093;28;20033;-57
2022/03/24 20:41:22;;;;;;;14.48;8.05;;;17.20;59.10;;;;;;10377243;28;20088;-57
2022/03/24 20:46:23;;;;;;;10.48;7.45;;;17.20;59.10;;;;;;10377562;28;20065;-59
2022/03/24 20:51:24;;;;;;;13.25;7.40;;;17.20;59.10;;;;;;10382731;28;20458;-59
2022/03/24 20:56:24;;;;;;;12.40;7.35;;;17.20;59.10;;;;;;10390057;28;20033;-59
2022/03/24 21:01:25;;;;;;;13.05;7.75;;;17.20;59.00;;;;;;10389296;28;20025;-59
2022/03/24 21:06:26;;;;;;;11.25;7.68;;;17.20;59.00;;;;;;10391256;28;20042;-60
2022/03/24 21:11:26;;;;;;;14.32;8.20;;;17.20;58.90;;;;;;10382716;28;20056;-60
2022/03/24 21:16:28;;;;;;;12.32;8.15;;;17.20;58.90;;;;;;10392738;28;20053;-59
2022/03/24 21:21:28;;;;;;;13.95;9.02;;;17.20;58.80;;;;;;10377244;28;20574;-59
2022/03/24 21:26:29;;;;;;;9.23;7.47;;;17.10;59.40;;;;;;10377260;28;20117;-59
2022/03/24 21:31:30;;;;;;;12.13;7.82;;;17.20;58.80;;;;;;10371673;28;20547;-59
2022/03/24 21:36:30;;;;;;;10.38;7.05;;;17.20;58.80;;;;;;10375970;28;20030;-59
2022/03/24 21:41:31;;;;;;;10.18;7.45;;;17.10;58.70;;;;;;10376508;28;20029;-59
2022/03/24 21:46:33;;;;;;;10.00;7.53;;;17.20;58.80;;;;;;10378170;28;20025;-60
2022/03/24 21:51:34;;;;;;;12.43;7.43;;;17.10;58.70;;;;;;10416966;28;20030;-59
2022/03/24 21:56:35;;;;;;;13.65;7.45;;;17.10;58.80;;;;;;10378092;28;20025;-59
2022/03/24 22:01:36;;;;;;;9.00;6.50;;;17.10;58.70;;;;;;10399910;28;20446;-59
2022/03/24 22:06:38;;;;;;;10.57;6.97;;;17.10;58.70;;;;;;10415744;28;20050;-59
2022/03/24 22:11:39;;;;;;;10.05;6.68;;;17.10;58.70;;;;;;10415473;28;20033;-60
2022/03/24 22:16:40;;;;;;;13.50;7.47;;;17.10;58.70;;;;;;10415089;28;20551;-59
2022/03/24 22:21:41;;;;;;;10.07;7.70;;;17.10;58.70;;;;;;10416152;28;20428;-60
2022/03/24 22:26:41;;;;;;;8.65;6.70;;;17.10;58.70;;;;;;10392107;28;20080;-59
2022/03/24 22:31:42;;;;;;;8.15;6.03;;;17.10;58.60;;;;;;10374368;28;20034;-60
2022/03/24 22:36:43;;;;;;;9.77;7.07;;;17.10;58.60;;;;;;10374680;28;20029;-60
2022/03/24 22:41:43;;;;;;;7.47;5.28;;;17.10;58.60;;;;;;10373984;28;20037;-57
2022/03/24 22:46:44;;;;;;;9.38;7.38;;;17.10;58.70;;;;;;10373221;28;20510;-56
2022/03/24 22:51:50;;;;;;;8.32;6.05;;;17.10;58.60;;;;;;10369574;28;20795;-56
2022/03/24 22:56:51;;;;;;;10.95;7.78;;;17.10;58.20;;;;;;10410877;28;20116;-58
2022/03/24 23:01:54;;;;;;;8.68;6.65;;;17.10;58.50;;;;;;10374247;28;20132;-57
2022/03/24 23:06:55;;;;;;;8.00;5.82;;;17.00;58.40;;;;;;10391231;28;20053;-56
2022/03/24 23:11:56;;;;;;;7.30;4.80;;;17.00;58.50;;;;;;10397867;28;20069;-57
2022/03/24 23:16:56;;;;;;;7.47;5.97;;;17.00;58.30;;;;;;10373034;28;20022;-56
2022/03/24 23:21:58;;;;;;;8.35;6.65;;;17.00;58.40;;;;;;10372866;28;20022;-56
2022/03/24 23:26:59;;;;;;;9.43;7.50;;;17.00;58.30;;;;;;10391056;28;20025;-56
2022/03/24 23:31:59;;;;;;;11.77;8.23;;;17.00;57.80;;;;;;10374586;28;20033;-57
2022/03/24 23:37:00;;;;;;;11.00;8.52;;;17.00;57.60;;;;;;10372493;28;20037;-57
2022/03/24 23:42:00;;;;;;;11.15;7.25;;;17.00;57.60;;;;;;10372550;28;20109;-57
2022/03/24 23:47:02;;;;;;;11.63;8.38;;;17.00;57.60;;;;;;10372239;28;20121;-57
2022/03/24 23:52:04;;;;;;;10.40;8.75;;;17.00;57.70;;;;;;10374130;28;20402;-57
2022/03/24 23:57:05;;;;;;;8.88;7.43;;;17.00;57.90;;;;;;10376315;28;20041;-57
